createdAt,value
2023-05-19T00:02:00.167Z,102217.88
2023-05-19T00:04:36.042Z,102214.50
2023-05-19T00:07:08.883Z,102213.69
2023-05-19T00:09:36.471Z,102225.97
2023-05-19T00:12:07.665Z,102220.69
2023-05-19T00:14:35.109Z,102222.56
2023-05-19T00:17:02.466Z,102228.84
2023-05-19T00:19:32.502Z,102221.97
2023-05-19T00:21:59.605Z,102219.63
2023-05-19T00:24:26.603Z,102223.38
2023-05-19T00:26:59.383Z,102209.28
2023-05-19T00:32:13.368Z,102214.94
2023-05-19T00:34:52.205Z,102209.00
2023-05-19T00:40:00.495Z,102211.59
2023-05-19T00:42:27.684Z,102202.78
2023-05-19T00:45:10.668Z,102207.28
2023-05-19T00:47:56.160Z,102199.25
2023-05-19T00:50:28.275Z,102200.22
2023-05-19T00:53:01.509Z,102192.53
2023-05-19T00:55:34.858Z,102194.56
2023-05-19T00:58:17.165Z,102187.63
2023-05-19T01:00:48.427Z,102183.16
2023-05-19T01:03:20.440Z,102190.97
2023-05-19T01:06:10.704Z,102199.75
2023-05-19T01:11:31.260Z,102186.13
2023-05-19T01:14:01.438Z,102196.00
2023-05-19T01:16:46.795Z,102189.22
2023-05-19T01:20:28.634Z,102187.69
2023-05-19T01:23:29.343Z,102195.63
2023-05-19T01:27:10.643Z,102192.88
2023-05-19T01:30:27.799Z,102199.94
2023-05-19T01:33:17.167Z,102197.06
2023-05-19T01:36:11.114Z,102194.25
2023-05-19T01:38:49.186Z,102195.13
2023-05-19T01:41:23.091Z,102196.78
2023-05-19T01:44:03.066Z,102204.50
2023-05-19T01:46:30.110Z,102204.22
2023-05-19T01:49:15.919Z,102200.63
2023-05-19T01:52:16.546Z,102217.34
2023-05-19T01:55:10.271Z,102218.38
2023-05-19T01:58:55.167Z,102218.38
2023-05-19T02:02:11.158Z,102218.31
2023-05-19T02:06:01.237Z,102232.09
2023-05-19T02:09:13.516Z,102225.94
2023-05-19T02:12:28.135Z,102229.94
2023-05-19T02:15:24.476Z,102227.91
2023-05-19T02:18:11.096Z,102228.50
2023-05-19T02:21:02.832Z,102225.66
2023-05-19T02:23:39.774Z,102213.13
2023-05-19T02:26:21.574Z,102221.50
2023-05-19T02:28:51.680Z,102218.25
2023-05-19T02:31:21.723Z,102222.78
2023-05-19T02:36:57.032Z,102223.28
2023-05-19T02:39:26.787Z,102224.06
2023-05-19T02:42:02.686Z,102226.53
2023-05-19T02:44:29.604Z,102220.97
2023-05-19T02:47:02.507Z,102221.72
2023-05-19T02:49:37.944Z,102221.44
2023-05-19T02:52:16.465Z,102229.22
2023-05-19T02:54:52.259Z,102230.16
2023-05-19T02:57:24.762Z,102228.44
2023-05-19T03:00:13.909Z,102229.13
2023-05-19T03:03:10.534Z,102221.91
2023-05-19T03:05:37.606Z,102223.94
2023-05-19T03:08:07.470Z,102224.81
2023-05-19T03:10:43.128Z,102214.41
2023-05-19T03:13:13.117Z,102216.44
2023-05-19T03:18:24.700Z,102218.31
2023-05-19T03:21:00.957Z,102214.34
2023-05-19T03:23:51.335Z,102205.25
2023-05-19T03:26:18.288Z,102204.09
2023-05-19T03:31:26.838Z,102206.78
2023-05-19T03:33:57.963Z,102209.84
2023-05-19T03:36:39.735Z,102213.25
2023-05-19T03:39:10.090Z,102207.50
2023-05-19T03:41:42.054Z,102199.59
2023-05-19T03:44:08.701Z,102204.97
2023-05-19T03:46:35.489Z,102212.47
2023-05-19T03:49:19.085Z,102215.75
2023-05-19T03:51:56.557Z,102212.22
2023-05-19T03:54:30.168Z,102206.56
2023-05-19T03:57:00.028Z,102213.16
2023-05-19T03:59:26.912Z,102204.56
2023-05-19T04:02:01.109Z,102217.47
2023-05-19T04:07:12.732Z,102217.53
2023-05-19T04:09:42.795Z,102218.66
2023-05-19T04:12:09.804Z,102224.31
2023-05-19T04:14:41.830Z,102221.38
2023-05-19T04:17:08.897Z,102228.75
2023-05-19T04:19:41.078Z,102222.03
2023-05-19T04:22:21.820Z,102225.84
2023-05-19T04:25:17.227Z,102231.88
2023-05-19T04:27:51.628Z,102231.28
2023-05-19T04:30:24.901Z,102235.84
2023-05-19T04:33:10.251Z,102229.06
2023-05-19T04:35:42.999Z,102241.38
2023-05-19T04:38:10.121Z,102235.31
2023-05-19T04:40:46.339Z,102246.84
2023-05-19T04:43:16.317Z,102237.13
2023-05-19T04:45:45.980Z,102243.19
2023-05-19T04:48:16.446Z,102239.47
2023-05-19T04:50:43.335Z,102232.75
2023-05-19T04:53:15.562Z,102233.50
2023-05-19T04:55:42.340Z,102234.56
2023-05-19T04:58:10.367Z,102228.66
2023-05-19T05:01:33.880Z,102243.97
2023-05-19T05:04:34.621Z,102230.41
2023-05-19T05:07:01.417Z,102237.72
2023-05-19T05:09:37.342Z,102240.84
2023-05-19T05:12:24.321Z,102243.13
2023-05-19T05:15:16.325Z,102240.22
2023-05-19T05:20:25.225Z,102248.28
2023-05-19T05:23:17.004Z,102238.38
2023-05-19T05:25:46.998Z,102239.94
2023-05-19T05:28:34.213Z,102234.78
2023-05-19T05:31:39.559Z,102235.84
2023-05-19T05:34:09.678Z,102238.97
2023-05-19T05:36:36.559Z,102233.91
2023-05-19T05:39:18.916Z,102240.09
2023-05-19T05:42:14.268Z,102231.38
2023-05-19T05:44:41.175Z,102235.91
2023-05-19T05:47:10.540Z,102244.66
2023-05-19T05:49:41.445Z,102242.56
2023-05-19T05:52:21.404Z,102240.94
2023-05-19T05:55:00.573Z,102244.47
2023-05-19T05:57:37.659Z,102240.31
2023-05-19T06:00:28.718Z,102244.66
2023-05-19T06:08:46.058Z,102243.78
2023-05-19T06:11:13.504Z,102238.88
2023-05-19T06:14:06.910Z,102252.41
2023-05-19T06:16:36.910Z,102236.03
2023-05-19T06:19:11.333Z,102249.16
2023-05-19T06:21:41.111Z,102237.47
2023-05-19T06:24:16.860Z,102249.25
2023-05-19T06:27:29.380Z,102245.91
2023-05-19T06:30:11.683Z,102239.69
2023-05-19T06:32:39.999Z,102250.13
2023-05-19T06:35:26.889Z,102245.97
2023-05-19T06:38:17.171Z,102242.66
2023-05-19T06:41:25.849Z,102245.63
2023-05-19T06:44:12.394Z,102243.13
2023-05-19T06:47:02.432Z,102240.16
2023-05-19T06:49:43.047Z,102255.13
2023-05-19T06:52:27.551Z,102246.63
2023-05-19T06:55:00.684Z,102250.03
2023-05-19T06:57:42.328Z,102255.81
2023-05-19T07:00:18.295Z,102269.28
2023-05-19T07:02:46.921Z,102256.59
2023-05-19T07:05:23.197Z,102268.38
2023-05-19T07:07:50.021Z,102273.69
2023-05-19T07:13:15.491Z,102266.56
2023-05-19T07:15:42.343Z,102262.94
2023-05-19T07:18:18.110Z,102263.97
2023-05-19T07:20:47.054Z,102275.75
2023-05-19T07:23:17.888Z,102269.53
2023-05-19T07:25:59.612Z,102274.09
2023-05-19T07:28:29.255Z,102266.03
2023-05-19T07:31:18.046Z,102269.94
2023-05-19T07:33:50.312Z,102266.00
2023-05-19T07:36:23.307Z,102270.69
2023-05-19T07:39:31.950Z,102275.19
2023-05-19T07:42:04.843Z,102271.34
2023-05-19T07:45:26.888Z,102267.59
2023-05-19T07:48:20.776Z,102266.63
2023-05-19T07:51:16.964Z,102268.47
2023-05-19T07:53:43.794Z,102272.81
2023-05-19T07:57:12.928Z,102260.84
2023-05-19T07:59:49.190Z,102262.53
2023-05-19T08:02:48.548Z,102257.47
2023-05-19T08:05:21.796Z,102259.22
2023-05-19T08:07:48.946Z,102258.13
2023-05-19T08:10:21.881Z,102267.25
2023-05-19T08:13:00.914Z,102262.97
2023-05-19T08:15:28.044Z,102267.47
2023-05-19T08:18:22.470Z,102267.41
2023-05-19T08:21:08.309Z,102266.81
2023-05-19T08:23:41.345Z,102261.94
2023-05-19T08:26:08.198Z,102270.00
2023-05-19T08:29:12.629Z,102263.97
2023-05-19T08:31:39.784Z,102266.44
2023-05-19T08:34:18.035Z,102264.81
2023-05-19T08:36:47.588Z,102256.78
2023-05-19T08:39:27.107Z,102264.25
2023-05-19T08:42:20.366Z,102260.66
2023-05-19T08:44:49.568Z,102262.81
2023-05-19T08:47:22.809Z,102252.56
2023-05-19T08:50:41.779Z,102263.81
2023-05-19T08:56:25.169Z,102259.53
2023-05-19T09:02:11.305Z,102261.13
2023-05-19T09:04:51.245Z,102253.44
2023-05-19T09:07:26.385Z,102260.44
2023-05-19T09:10:23.418Z,102257.34
2023-05-19T09:13:14.993Z,102253.16
2023-05-19T09:18:35.224Z,102253.16
2023-05-19T09:21:25.313Z,102265.31
2023-05-19T09:27:14.676Z,102263.53
2023-05-19T09:29:44.997Z,102252.63
2023-05-19T09:32:26.938Z,102253.91
2023-05-19T09:35:21.576Z,102259.44
2023-05-19T09:37:51.301Z,102255.13
2023-05-19T09:40:32.771Z,102260.09
2023-05-19T09:43:10.855Z,102253.44
2023-05-19T09:45:37.997Z,102258.56
2023-05-19T09:48:08.242Z,102264.56
2023-05-19T09:53:39.885Z,102265.06
2023-05-19T09:56:10.327Z,102270.31
2023-05-19T09:59:16.151Z,102262.13
2023-05-19T10:02:09.850Z,102256.69
2023-05-19T10:04:40.441Z,102257.53
2023-05-19T10:07:14.577Z,102253.88
2023-05-19T10:09:46.111Z,102250.56
2023-05-19T10:12:13.953Z,102243.19
2023-05-19T10:14:45.080Z,102244.16
2023-05-19T10:17:14.520Z,102239.69
2023-05-19T10:19:45.289Z,102240.28
2023-05-19T10:22:21.787Z,102240.91
2023-05-19T10:24:49.215Z,102237.16
2023-05-19T10:27:18.772Z,102231.69
2023-05-19T10:30:18.658Z,102223.59
2023-05-19T10:32:52.001Z,102231.69
2023-05-19T10:35:34.386Z,102239.25
2023-05-19T10:39:20.660Z,102232.00
2023-05-19T10:42:41.026Z,102236.00
2023-05-19T10:45:22.601Z,102234.56
2023-05-19T10:48:09.489Z,102226.31
2023-05-19T10:50:39.700Z,102220.19
2023-05-19T10:56:43.027Z,102222.66
2023-05-19T10:59:37.377Z,102228.16
2023-05-19T11:02:08.982Z,102235.53
2023-05-19T11:05:33.138Z,102227.56
2023-05-19T11:08:11.625Z,102210.91
2023-05-19T11:10:42.045Z,102212.41
2023-05-19T11:13:29.492Z,102216.09
2023-05-19T11:16:12.165Z,102217.09
2023-05-19T11:18:39.189Z,102217.72
2023-05-19T11:21:20.114Z,102207.88
2023-05-19T11:23:48.527Z,102214.63
2023-05-19T11:26:47.624Z,102211.63
2023-05-19T11:37:32.124Z,102214.63
2023-05-19T11:40:19.175Z,102206.38
2023-05-19T11:43:19.555Z,102205.72
2023-05-19T11:45:51.654Z,102197.69
2023-05-19T11:51:35.403Z,102209.47
2023-05-19T11:54:20.587Z,102204.34
2023-05-19T11:56:51.692Z,102209.50
2023-05-19T11:59:47.188Z,102201.81
2023-05-19T12:02:30.027Z,102199.06
2023-05-19T12:05:39.933Z,102211.88
2023-05-19T12:08:26.490Z,102204.88
2023-05-19T12:11:42.348Z,102198.53
2023-05-19T12:14:13.613Z,102198.41
2023-05-19T12:17:12.816Z,102208.00
2023-05-19T12:20:16.431Z,102207.63
2023-05-19T12:22:44.762Z,102193.16
2023-05-19T12:25:15.231Z,102201.69
2023-05-19T12:27:46.601Z,102195.97
2023-05-19T12:30:34.816Z,102196.25
2023-05-19T12:33:18.168Z,102192.44
2023-05-19T12:35:50.634Z,102187.31
2023-05-19T12:38:35.771Z,102189.44
2023-05-19T12:41:19.863Z,102180.03
2023-05-19T12:43:47.202Z,102187.16
2023-05-19T12:46:19.536Z,102181.66
2023-05-19T12:55:18.506Z,102179.78
2023-05-19T12:57:56.818Z,102185.38
2023-05-19T13:00:28.328Z,102179.44
2023-05-19T13:04:14.750Z,102194.16
2023-05-19T13:06:41.920Z,102174.97
2023-05-19T13:09:18.021Z,102169.19
2023-05-19T13:14:50.421Z,102163.19
2023-05-19T13:17:20.662Z,102171.69
2023-05-19T13:19:59.916Z,102170.94
2023-05-19T13:25:27.928Z,102177.47
2023-05-19T13:28:37.320Z,102171.53
2023-05-19T13:31:21.029Z,102170.47
2023-05-19T13:33:48.112Z,102172.44
2023-05-19T13:36:21.690Z,102167.44
2023-05-19T13:38:51.376Z,102176.03
2023-05-19T13:41:30.722Z,102164.59
2023-05-19T13:44:12.900Z,102158.72
2023-05-19T13:46:45.587Z,102157.88
2023-05-19T13:49:18.404Z,102161.97
2023-05-19T13:51:51.490Z,102159.84
2023-05-19T13:54:20.753Z,102155.19
2023-05-19T13:56:48.684Z,102153.31
2023-05-19T13:59:18.644Z,102157.09
2023-05-19T14:01:58.685Z,102140.50
2023-05-19T14:04:26.751Z,102137.63
2023-05-19T14:07:12.700Z,102146.84
2023-05-19T14:10:18.807Z,102130.34
2023-05-19T14:12:52.820Z,102139.81
2023-05-19T14:15:38.084Z,102129.63
2023-05-19T14:18:27.509Z,102141.63
2023-05-19T14:21:15.789Z,102141.81
2023-05-19T14:23:44.992Z,102149.75
2023-05-19T14:26:22.681Z,102133.91
2023-05-19T14:29:17.555Z,102141.09
2023-05-19T14:34:30.084Z,102139.72
2023-05-19T14:40:16.303Z,102143.28
2023-05-19T14:42:49.670Z,102129.66
2023-05-19T14:46:09.982Z,102126.91
2023-05-19T14:48:39.499Z,102132.47
2023-05-19T14:55:58.863Z,102143.34
2023-05-19T14:58:36.081Z,102147.09
2023-05-19T15:01:37.097Z,102140.28
2023-05-19T15:04:20.016Z,102145.53
2023-05-19T15:07:12.283Z,102146.88
2023-05-19T15:10:12.368Z,102148.31
2023-05-19T15:12:39.398Z,102145.25
2023-05-19T15:15:18.951Z,102133.31
2023-05-19T15:17:47.904Z,102139.09
2023-05-19T15:20:15.207Z,102137.72
2023-05-19T15:22:42.139Z,102130.41
2023-05-19T15:25:12.479Z,102138.38
2023-05-19T15:27:44.321Z,102130.06
2023-05-19T15:30:17.580Z,102137.56
2023-05-19T15:33:01.736Z,102141.28
2023-05-19T15:36:06.002Z,102129.88
2023-05-19T15:38:36.997Z,102123.19
2023-05-19T15:41:30.413Z,102125.03
2023-05-19T15:44:00.117Z,102123.06
2023-05-19T15:46:27.358Z,102115.69
2023-05-19T15:49:13.774Z,102127.44
2023-05-19T15:51:50.003Z,102115.88
2023-05-19T15:54:18.225Z,102108.81
2023-05-19T15:56:45.473Z,102102.75
2023-05-19T15:59:17.969Z,102112.59
2023-05-19T16:01:45.110Z,102105.28
2023-05-19T16:04:17.946Z,102104.75
2023-05-19T16:06:47.397Z,102098.22
2023-05-19T16:09:24.632Z,102105.78
2023-05-19T16:11:51.612Z,102099.63
2023-05-19T16:14:24.535Z,102103.28
2023-05-19T16:17:01.744Z,102101.22
2023-05-19T16:19:29.501Z,102099.69
2023-05-19T16:21:56.637Z,102103.22
2023-05-19T16:24:29.078Z,102098.28
2023-05-19T16:27:02.199Z,102099.22
2023-05-19T16:29:29.246Z,102086.81
2023-05-19T16:32:02.205Z,102090.94
2023-05-19T16:35:42.697Z,102091.63
2023-05-19T16:37:59.739Z,102090.31
2023-05-19T16:40:37.345Z,102097.59
2023-05-19T16:43:19.918Z,102091.06
2023-05-19T16:45:59.970Z,102096.34
2023-05-19T16:48:38.266Z,102087.00
2023-05-19T16:51:41.244Z,102096.63
2023-05-19T16:54:26.515Z,102087.69
2023-05-19T16:59:48.764Z,102094.63
2023-05-19T17:02:23.443Z,102085.00
2023-05-19T17:05:02.057Z,102096.31
2023-05-19T17:07:31.937Z,102088.47
2023-05-19T17:09:58.911Z,102092.69
2023-05-19T17:15:23.176Z,102088.84
2023-05-19T17:18:02.675Z,102090.84
2023-05-19T17:20:35.008Z,102085.59
2023-05-19T17:23:06.640Z,102091.38
2023-05-19T17:25:34.546Z,102085.22
2023-05-19T17:28:01.510Z,102077.25
2023-05-19T17:30:40.354Z,102081.69
2023-05-19T17:33:20.074Z,102069.72
2023-05-19T17:35:59.793Z,102065.16
2023-05-19T17:38:27.991Z,102071.31
2023-05-19T17:41:02.410Z,102069.59
2023-05-19T17:43:29.533Z,102077.31
2023-05-19T17:46:03.214Z,102074.31
2023-05-19T17:48:39.130Z,102074.19
2023-05-19T17:51:16.528Z,102083.16
2023-05-19T17:53:44.133Z,102080.19
2023-05-19T17:56:16.928Z,102080.75
2023-05-19T17:59:02.860Z,102084.59
2023-05-19T18:01:36.243Z,102084.88
2023-05-19T18:04:32.838Z,102087.19
2023-05-19T18:07:19.500Z,102097.84
2023-05-19T18:09:47.021Z,102097.56
2023-05-19T18:12:22.101Z,102103.28
2023-05-19T18:14:59.722Z,102096.06
2023-05-19T18:17:29.181Z,102097.63
2023-05-19T18:20:02.304Z,102105.16
2023-05-19T18:22:32.379Z,102085.03
2023-05-19T18:24:59.229Z,102100.69
2023-05-19T18:27:27.784Z,102096.09
2023-05-19T18:30:00.922Z,102111.06
2023-05-19T18:32:28.853Z,102099.94
2023-05-19T18:35:02.272Z,102105.16
2023-05-19T18:37:29.459Z,102108.88
2023-05-19T18:40:03.223Z,102106.97
2023-05-19T18:42:30.276Z,102100.34
2023-05-19T18:45:18.865Z,102114.56
2023-05-19T18:48:00.302Z,102125.19
2023-05-19T18:50:33.293Z,102131.00
2023-05-19T18:53:33.022Z,102124.41
2023-05-19T18:55:59.974Z,102123.34
2023-05-19T18:58:39.413Z,102113.78
2023-05-19T19:01:23.733Z,102106.72
2023-05-19T19:04:20.054Z,102123.22
2023-05-19T19:07:02.768Z,102120.38
2023-05-19T19:09:29.871Z,102122.50
2023-05-19T19:11:59.753Z,102128.16
2023-05-19T19:14:34.055Z,102123.41
2023-05-19T19:17:08.901Z,102129.94
2023-05-19T19:19:43.192Z,102131.81
2023-05-19T19:22:10.060Z,102132.19
2023-05-19T19:24:42.777Z,102139.06
2023-05-19T19:27:10.429Z,102135.16
2023-05-19T19:29:43.333Z,102135.53
2023-05-19T19:32:18.273Z,102140.22
2023-05-19T19:34:47.776Z,102135.19
2023-05-19T19:37:23.450Z,102130.16
2023-05-19T19:43:20.054Z,102136.69
2023-05-19T19:46:48.062Z,102137.06
2023-05-19T19:49:00.397Z,102143.78
2023-05-19T19:51:33.858Z,102142.34
2023-05-19T19:54:11.471Z,102151.19
2023-05-19T19:56:38.397Z,102154.50
2023-05-19T19:59:26.533Z,102153.13
2023-05-19T20:02:19.683Z,102152.50
2023-05-19T20:04:46.692Z,102159.38
2023-05-19T20:07:19.665Z,102161.81
2023-05-19T20:09:47.094Z,102162.19
2023-05-19T20:12:19.732Z,102161.69
2023-05-19T20:14:47.661Z,102158.50
2023-05-19T20:17:24.660Z,102167.94
2023-05-19T20:19:51.853Z,102166.44
2023-05-19T20:22:18.829Z,102164.84
2023-05-19T20:24:48.175Z,102167.78
2023-05-19T20:27:21.258Z,102175.03
2023-05-19T20:29:50.529Z,102163.66
2023-05-19T20:32:30.891Z,102167.81
2023-05-19T20:35:35.884Z,102166.06
2023-05-19T20:41:04.165Z,102170.25
2023-05-19T20:43:33.107Z,102168.94
2023-05-19T20:46:06.593Z,102167.19
2023-05-19T20:48:41.608Z,102176.41
2023-05-19T20:51:08.754Z,102172.09
2023-05-19T20:53:38.340Z,102173.22
2023-05-19T20:56:38.089Z,102177.50
2023-05-19T20:59:27.449Z,102172.84
2023-05-19T21:01:57.317Z,102176.66
2023-05-19T21:04:27.232Z,102180.94
2023-05-19T21:07:10.435Z,102185.34
2023-05-19T21:09:39.870Z,102170.06
2023-05-19T21:12:39.046Z,102170.91
2023-05-19T21:15:18.849Z,102176.50
2023-05-19T21:17:58.021Z,102166.31
2023-05-19T21:20:25.941Z,102171.97
2023-05-19T21:23:02.215Z,102176.28
2023-05-19T21:25:34.965Z,102170.34
2023-05-19T21:28:07.790Z,102182.25
2023-05-19T21:30:52.032Z,102183.31
2023-05-19T21:33:29.940Z,102172.97
2023-05-19T21:36:25.820Z,102177.66
2023-05-19T21:38:57.211Z,102181.31
2023-05-19T21:41:24.088Z,102174.31
2023-05-19T21:44:08.236Z,102180.81
2023-05-19T21:46:35.518Z,102175.13
2023-05-19T21:49:08.610Z,102176.97
2023-05-19T21:51:40.634Z,102182.47
2023-05-19T21:54:08.523Z,102173.25
2023-05-19T21:56:40.777Z,102184.91
2023-05-19T21:59:14.078Z,102186.88
2023-05-19T22:01:43.595Z,102183.63
2023-05-19T22:04:24.863Z,102183.97
2023-05-19T22:06:51.803Z,102180.53
2023-05-19T22:09:24.866Z,102183.75
2023-05-19T22:12:07.822Z,102170.72
2023-05-19T22:14:41.800Z,102177.13
2023-05-19T22:17:12.975Z,102167.72
2023-05-19T22:19:48.364Z,102173.13
2023-05-19T22:22:15.482Z,102177.56
2023-05-19T22:24:56.838Z,102157.44
2023-05-19T22:27:48.881Z,102167.56
2023-05-19T22:30:49.985Z,102169.63
2023-05-19T22:33:22.516Z,102165.44
2023-05-19T22:35:59.692Z,102174.59
2023-05-19T22:38:26.582Z,102162.22
2023-05-19T22:41:31.938Z,102179.88
2023-05-19T22:43:58.918Z,102176.34
2023-05-19T22:46:28.406Z,102182.91
2023-05-19T22:49:04.821Z,102174.41
2023-05-19T22:51:39.387Z,102171.13
2023-05-19T22:54:13.102Z,102180.91
2023-05-19T22:56:51.162Z,102177.47
2023-05-19T22:59:26.379Z,102174.34
2023-05-19T23:01:56.989Z,102178.88
2023-05-19T23:04:24.192Z,102177.28
2023-05-19T23:06:58.686Z,102183.41
2023-05-19T23:09:27.407Z,102190.22
2023-05-19T23:12:00.077Z,102187.66
2023-05-19T23:14:30.073Z,102185.50
2023-05-19T23:17:08.867Z,102192.63
2023-05-19T23:19:41.975Z,102191.78
2023-05-19T23:22:29.041Z,102192.84
2023-05-19T23:25:10.486Z,102187.34
2023-05-19T23:27:37.498Z,102188.41
2023-05-19T23:30:14.176Z,102190.44
2023-05-19T23:32:41.104Z,102189.69
2023-05-19T23:35:29.522Z,102194.22
2023-05-19T23:38:12.733Z,102187.38
2023-05-19T23:40:39.497Z,102193.63
2023-05-19T23:43:09.715Z,102188.75
2023-05-19T23:45:39.342Z,102179.16
2023-05-19T23:48:09.595Z,102187.38
2023-05-19T23:50:43.843Z,102183.38
2023-05-19T23:53:10.711Z,102186.19
2023-05-19T23:55:41.838Z,102179.69
2023-05-19T23:58:08.983Z,102187.88
